sensor_id;sensor_type;location;lat;lon;timestamp;temperature;humidity
46458;DHT22;32155;54.076;12.092;2023-02-04T00:02:34;4.10;99.90
46458;DHT22;32155;54.076;12.092;2023-02-04T00:04:59;4.10;99.90
46458;DHT22;32155;54.076;12.092;2023-02-04T00:07:31;4.10;99.90
46458;DHT22;32155;54.076;12.092;2023-02-04T00:09:59;4.20;99.90
46458;DHT22;32155;54.076;12.092;2023-02-04T00:12:28;4.10;99.90
46458;DHT22;32155;54.076;12.092;2023-02-04T00:14:59;4.10;99.90
46458;DHT22;32155;54.076;12.092;2023-02-04T00:17:31;4.10;99.90
46458;DHT22;32155;54.076;12.092;2023-02-04T00:19:56;3.90;99.90
46458;DHT22;32155;54.076;12.092;2023-02-04T00:22:27;3.90;99.90
46458;DHT22;32155;54.076;12.092;2023-02-04T00:24:56;3.90;99.90
46458;DHT22;32155;54.076;12.092;2023-02-04T00:27:27;3.90;99.90
46458;DHT22;32155;54.076;12.092;2023-02-04T00:29:53;3.90;99.90
46458;DHT22;32155;54.076;12.092;2023-02-04T00:32:41;3.80;99.90
46458;DHT22;32155;54.076;12.092;2023-02-04T00:35:10;3.90;99.90
46458;DHT22;32155;54.076;12.092;2023-02-04T00:37:39;3.90;99.90
46458;DHT22;32155;54.076;12.092;2023-02-04T00:40:10;3.90;99.90
46458;DHT22;32155;54.076;12.092;2023-02-04T00:42:39;3.90;99.90
46458;DHT22;32155;54.076;12.092;2023-02-04T00:45:54;4.00;99.90
46458;DHT22;32155;54.076;12.092;2023-02-04T00:48:03;4.00;99.90
46458;DHT22;32155;54.076;12.092;2023-02-04T00:50:32;4.00;99.90
46458;DHT22;32155;54.076;12.092;2023-02-04T00:53:12;4.00;99.90
46458;DHT22;32155;54.076;12.092;2023-02-04T00:55:55;4.00;99.90
46458;DHT22;32155;54.076;12.092;2023-02-04T00:58:21;4.00;99.90
46458;DHT22;32155;54.076;12.092;2023-02-04T01:00:47;4.00;99.90
46458;DHT22;32155;54.076;12.092;2023-02-04T01:03:12;4.00;99.90
46458;DHT22;32155;54.076;12.092;2023-02-04T01:05:44;4.10;99.90
46458;DHT22;32155;54.076;12.092;2023-02-04T01:08:18;4.00;99.90
46458;DHT22;32155;54.076;12.092;2023-02-04T01:10:58;4.00;99.90
46458;DHT22;32155;54.076;12.092;2023-02-04T01:13:30;4.00;99.90
46458;DHT22;32155;54.076;12.092;2023-02-04T01:16:05;4.00;99.90
46458;DHT22;32155;54.076;12.092;2023-02-04T01:18:55;4.00;99.90
46458;DHT22;32155;54.076;12.092;2023-02-04T01:21:46;4.00;99.90
46458;DHT22;32155;54.076;12.092;2023-02-04T01:24:14;4.00;99.90
46458;DHT22;32155;54.076;12.092;2023-02-04T01:26:47;3.90;99.90
46458;DHT22;32155;54.076;12.092;2023-02-04T01:29:29;3.80;99.90
46458;DHT22;32155;54.076;12.092;2023-02-04T01:31:55;3.90;99.90
46458;DHT22;32155;54.076;12.092;2023-02-04T01:34:26;3.90;99.90
46458;DHT22;32155;54.076;12.092;2023-02-04T01:36:58;3.90;99.90
46458;DHT22;32155;54.076;12.092;2023-02-04T01:39:24;3.90;99.90
46458;DHT22;32155;54.076;12.092;2023-02-04T01:41:52;3.90;99.90
46458;DHT22;32155;54.076;12.092;2023-02-04T01:44:21;3.90;99.90
46458;DHT22;32155;54.076;12.092;2023-02-04T01:46:47;3.90;99.90
46458;DHT22;32155;54.076;12.092;2023-02-04T01:49:16;3.90;99.90
46458;DHT22;32155;54.076;12.092;2023-02-04T01:51:44;3.90;99.90
46458;DHT22;32155;54.076;12.092;2023-02-04T01:54:14;3.90;99.90
46458;DHT22;32155;54.076;12.092;2023-02-04T01:56:49;3.90;99.90
46458;DHT22;32155;54.076;12.092;2023-02-04T01:59:19;3.90;99.90
46458;DHT22;32155;54.076;12.092;2023-02-04T02:01:47;3.80;99.90
46458;DHT22;32155;54.076;12.092;2023-02-04T02:04:30;3.80;99.90
46458;DHT22;32155;54.076;12.092;2023-02-04T02:07:00;3.80;99.90
46458;DHT22;32155;54.076;12.092;2023-02-04T02:09:28;3.70;99.90
46458;DHT22;32155;54.076;12.092;2023-02-04T02:11:58;3.70;99.90
46458;DHT22;32155;54.076;12.092;2023-02-04T02:14:29;3.70;99.90
46458;DHT22;32155;54.076;12.092;2023-02-04T02:16:58;3.80;99.90
46458;DHT22;32155;54.076;12.092;2023-02-04T02:19:34;3.90;99.90
46458;DHT22;32155;54.076;12.092;2023-02-04T02:22:15;3.80;99.90
46458;DHT22;32155;54.076;12.092;2023-02-04T02:24:44;3.90;99.90
46458;DHT22;32155;54.076;12.092;2023-02-04T02:27:18;3.90;99.90
46458;DHT22;32155;54.076;12.092;2023-02-04T02:29:47;3.90;99.90
46458;DHT22;32155;54.076;12.092;2023-02-04T02:32:22;3.90;99.90
46458;DHT22;32155;54.076;12.092;2023-02-04T02:34:57;3.90;99.90
46458;DHT22;32155;54.076;12.092;2023-02-04T02:37:32;3.90;99.90
46458;DHT22;32155;54.076;12.092;2023-02-04T02:40:27;3.80;99.90
46458;DHT22;32155;54.076;12.092;2023-02-04T02:42:58;3.80;99.90
46458;DHT22;32155;54.076;12.092;2023-02-04T02:45:32;3.80;99.90
46458;DHT22;32155;54.076;12.092;2023-02-04T02:48:11;3.80;99.90
46458;DHT22;32155;54.076;12.092;2023-02-04T02:50:41;3.80;99.90
46458;DHT22;32155;54.076;12.092;2023-02-04T02:53:28;3.80;99.90
46458;DHT22;32155;54.076;12.092;2023-02-04T02:56:08;3.70;99.90
46458;DHT22;32155;54.076;12.092;2023-02-04T02:58:45;3.80;99.90
46458;DHT22;32155;54.076;12.092;2023-02-04T03:01:12;3.80;99.90
46458;DHT22;32155;54.076;12.092;2023-02-04T03:03:54;3.80;99.90
46458;DHT22;32155;54.076;12.092;2023-02-04T03:09:37;3.90;99.90
46458;DHT22;32155;54.076;12.092;2023-02-04T03:12:06;3.90;99.90
46458;DHT22;32155;54.076;12.092;2023-02-04T03:14:48;3.80;99.90
46458;DHT22;32155;54.076;12.092;2023-02-04T03:17:17;3.70;99.90
46458;DHT22;32155;54.076;12.092;2023-02-04T03:19:52;3.70;99.90
46458;DHT22;32155;54.076;12.092;2023-02-04T03:22:26;3.80;99.90
46458;DHT22;32155;54.076;12.092;2023-02-04T03:25:14;3.80;99.90
46458;DHT22;32155;54.076;12.092;2023-02-04T03:28:10;3.80;99.90
46458;DHT22;32155;54.076;12.092;2023-02-04T03:30:45;3.80;99.90
46458;DHT22;32155;54.076;12.092;2023-02-04T03:33:27;3.80;99.90
46458;DHT22;32155;54.076;12.092;2023-02-04T03:36:02;3.80;99.90
46458;DHT22;32155;54.076;12.092;2023-02-04T03:38:31;3.70;99.90
46458;DHT22;32155;54.076;12.092;2023-02-04T03:41:06;3.70;99.90
46458;DHT22;32155;54.076;12.092;2023-02-04T03:43:36;3.70;99.90
46458;DHT22;32155;54.076;12.092;2023-02-04T03:46:05;3.70;99.90
46458;DHT22;32155;54.076;12.092;2023-02-04T03:48:51;3.70;99.90
46458;DHT22;32155;54.076;12.092;2023-02-04T03:51:49;3.70;99.90
46458;DHT22;32155;54.076;12.092;2023-02-04T03:55:03;3.70;99.90
46458;DHT22;32155;54.076;12.092;2023-02-04T04:01:15;3.70;99.90
46458;DHT22;32155;54.076;12.092;2023-02-04T04:07:37;3.70;99.90
46458;DHT22;32155;54.076;12.092;2023-02-04T04:10:50;3.60;99.90
46458;DHT22;32155;54.076;12.092;2023-02-04T04:13:48;3.60;99.90
46458;DHT22;32155;54.076;12.092;2023-02-04T04:16:55;3.60;99.90
46458;DHT22;32155;54.076;12.092;2023-02-04T04:26:31;3.40;99.90
46458;DHT22;32155;54.076;12.092;2023-02-04T04:29:17;3.30;99.90
46458;DHT22;32155;54.076;12.092;2023-02-04T04:32:03;3.20;99.90
46458;DHT22;32155;54.076;12.092;2023-02-04T04:37:25;3.10;99.90
46458;DHT22;32155;54.076;12.092;2023-02-04T04:40:11;3.00;99.90
46458;DHT22;32155;54.076;12.092;2023-02-04T04:42:57;2.80;99.90
46458;DHT22;32155;54.076;12.092;2023-02-04T04:49:02;2.60;99.90
46458;DHT22;32155;54.076;12.092;2023-02-04T05:02:45;2.10;99.90
46458;DHT22;32155;54.076;12.092;2023-02-04T05:05:37;2.10;99.90
46458;DHT22;32155;54.076;12.092;2023-02-04T05:12:21;2.10;99.90
46458;DHT22;32155;54.076;12.092;2023-02-04T05:15:09;2.20;99.90
46458;DHT22;32155;54.076;12.092;2023-02-04T05:18:11;2.20;99.90
46458;DHT22;32155;54.076;12.092;2023-02-04T05:21:13;2.30;99.90
46458;DHT22;32155;54.076;12.092;2023-02-04T05:28:21;2.30;99.90
46458;DHT22;32155;54.076;12.092;2023-02-04T05:48:48;1.90;99.90
46458;DHT22;32155;54.076;12.092;2023-02-04T05:59:11;1.80;99.90
46458;DHT22;32155;54.076;12.092;2023-02-04T06:16:38;1.70;99.90
46458;DHT22;32155;54.076;12.092;2023-02-04T06:18:56;1.70;99.90
46458;DHT22;32155;54.076;12.092;2023-02-04T06:28:29;1.60;99.90
46458;DHT22;32155;54.076;12.092;2023-02-04T06:34:35;1.80;99.90
46458;DHT22;32155;54.076;12.092;2023-02-04T06:37:39;1.80;99.90
46458;DHT22;32155;54.076;12.092;2023-02-04T06:40:21;1.80;99.90
46458;DHT22;32155;54.076;12.092;2023-02-04T06:43:06;1.80;99.90
46458;DHT22;32155;54.076;12.092;2023-02-04T06:45:32;1.90;99.90
46458;DHT22;32155;54.076;12.092;2023-02-04T06:47:58;2.00;99.90
46458;DHT22;32155;54.076;12.092;2023-02-04T06:50:26;2.10;99.90
46458;DHT22;32155;54.076;12.092;2023-02-04T06:52:58;2.20;99.90
46458;DHT22;32155;54.076;12.092;2023-02-04T06:55:23;2.30;99.90
46458;DHT22;32155;54.076;12.092;2023-02-04T06:57:49;2.30;99.90
46458;DHT22;32155;54.076;12.092;2023-02-04T07:00:15;2.40;99.90
46458;DHT22;32155;54.076;12.092;2023-02-04T07:02:52;2.40;99.90
46458;DHT22;32155;54.076;12.092;2023-02-04T07:05:28;2.50;99.90
46458;DHT22;32155;54.076;12.092;2023-02-04T07:07:53;2.60;99.90
46458;DHT22;32155;54.076;12.092;2023-02-04T07:10:19;2.60;99.90
46458;DHT22;32155;54.076;12.092;2023-02-04T07:12:45;2.60;99.90
46458;DHT22;32155;54.076;12.092;2023-02-04T07:15:14;2.60;99.90
46458;DHT22;32155;54.076;12.092;2023-02-04T07:17:43;2.70;99.90
46458;DHT22;32155;54.076;12.092;2023-02-04T07:20:17;2.70;99.90
46458;DHT22;32155;54.076;12.092;2023-02-04T07:22:42;2.80;99.90
46458;DHT22;32155;54.076;12.092;2023-02-04T07:25:09;2.80;99.90
46458;DHT22;32155;54.076;12.092;2023-02-04T07:27:36;2.90;99.90
46458;DHT22;32155;54.076;12.092;2023-02-04T07:30:02;3.00;99.90
46458;DHT22;32155;54.076;12.092;2023-02-04T07:32:41;3.00;99.90
46458;DHT22;32155;54.076;12.092;2023-02-04T07:35:16;3.00;99.90
46458;DHT22;32155;54.076;12.092;2023-02-04T07:37:42;3.10;99.90
46458;DHT22;32155;54.076;12.092;2023-02-04T07:40:12;3.20;99.90
46458;DHT22;32155;54.076;12.092;2023-02-04T07:42:41;3.20;99.90
46458;DHT22;32155;54.076;12.092;2023-02-04T07:45:07;3.30;99.90
46458;DHT22;32155;54.076;12.092;2023-02-04T07:47:34;3.50;99.90
46458;DHT22;32155;54.076;12.092;2023-02-04T07:49:59;3.60;99.90
46458;DHT22;32155;54.076;12.092;2023-02-04T07:52:25;3.80;99.90
46458;DHT22;32155;54.076;12.092;2023-02-04T07:54:54;3.90;99.90
46458;DHT22;32155;54.076;12.092;2023-02-04T07:57:20;3.90;99.90
46458;DHT22;32155;54.076;12.092;2023-02-04T07:59:46;3.90;99.90
46458;DHT22;32155;54.076;12.092;2023-02-04T08:02:14;4.00;99.90
46458;DHT22;32155;54.076;12.092;2023-02-04T08:04:42;4.10;99.90
46458;DHT22;32155;54.076;12.092;2023-02-04T08:07:08;4.30;99.90
46458;DHT22;32155;54.076;12.092;2023-02-04T08:09:40;4.40;99.90
46458;DHT22;32155;54.076;12.092;2023-02-04T08:12:06;4.60;99.90
46458;DHT22;32155;54.076;12.092;2023-02-04T08:14:32;6.50;99.90
46458;DHT22;32155;54.076;12.092;2023-02-04T08:16:58;7.40;99.90
46458;DHT22;32155;54.076;12.092;2023-02-04T08:19:23;7.00;99.90
46458;DHT22;32155;54.076;12.092;2023-02-04T08:21:55;6.30;99.90
46458;DHT22;32155;54.076;12.092;2023-02-04T08:24:38;5.80;99.90
46458;DHT22;32155;54.076;12.092;2023-02-04T08:27:04;5.30;99.90
46458;DHT22;32155;54.076;12.092;2023-02-04T08:29:32;5.10;99.90
46458;DHT22;32155;54.076;12.092;2023-02-04T08:31:58;4.90;99.90
46458;DHT22;32155;54.076;12.092;2023-02-04T08:34:23;4.70;99.90
46458;DHT22;32155;54.076;12.092;2023-02-04T08:36:49;4.60;99.90
46458;DHT22;32155;54.076;12.092;2023-02-04T08:39:15;4.80;99.90
46458;DHT22;32155;54.076;12.092;2023-02-04T08:41:43;5.00;99.90
46458;DHT22;32155;54.076;12.092;2023-02-04T08:44:27;5.60;99.90
46458;DHT22;32155;54.076;12.092;2023-02-04T08:47:01;7.50;99.90
46458;DHT22;32155;54.076;12.092;2023-02-04T08:49:27;10.00;99.90
46458;DHT22;32155;54.076;12.092;2023-02-04T08:51:56;11.50;99.90
46458;DHT22;32155;54.076;12.092;2023-02-04T08:54:35;10.00;99.90
46458;DHT22;32155;54.076;12.092;2023-02-04T08:57:01;10.60;99.90
46458;DHT22;32155;54.076;12.092;2023-02-04T08:59:33;12.80;99.90
46458;DHT22;32155;54.076;12.092;2023-02-04T09:15:11;18.60;91.10
46458;DHT22;32155;54.076;12.092;2023-02-04T09:25:51;16.40;84.90
46458;DHT22;32155;54.076;12.092;2023-02-04T09:28:55;15.30;87.70
46458;DHT22;32155;54.076;12.092;2023-02-04T09:34:26;14.20;90.80
46458;DHT22;32155;54.076;12.092;2023-02-04T09:36:58;13.80;92.00
46458;DHT22;32155;54.076;12.092;2023-02-04T09:42:34;15.10;91.10
46458;DHT22;32155;54.076;12.092;2023-02-04T09:45:36;13.80;90.30
46458;DHT22;32155;54.076;12.092;2023-02-04T09:48:04;15.40;91.00
46458;DHT22;32155;54.076;12.092;2023-02-04T09:50:31;17.50;86.10
46458;DHT22;32155;54.076;12.092;2023-02-04T09:53:00;18.90;80.60
46458;DHT22;32155;54.076;12.092;2023-02-04T09:55:33;20.60;77.50
46458;DHT22;32155;54.076;12.092;2023-02-04T09:58:07;21.80;73.40
46458;DHT22;32155;54.076;12.092;2023-02-04T10:00:37;21.30;69.80
46458;DHT22;32155;54.076;12.092;2023-02-04T10:03:21;22.40;65.50
46458;DHT22;32155;54.076;12.092;2023-02-04T10:05:48;20.20;69.60
46458;DHT22;32155;54.076;12.092;2023-02-04T10:08:20;21.80;69.80
46458;DHT22;32155;54.076;12.092;2023-02-04T10:10:47;22.70;64.20
46458;DHT22;32155;54.076;12.092;2023-02-04T10:13:30;23.40;62.30
46458;DHT22;32155;54.076;12.092;2023-02-04T10:15:57;23.30;60.30
46458;DHT22;32155;54.076;12.092;2023-02-04T10:18:30;23.50;60.30
46458;DHT22;32155;54.076;12.092;2023-02-04T10:21:29;23.30;59.00
46458;DHT22;32155;54.076;12.092;2023-02-04T10:24:02;23.70;58.70
46458;DHT22;32155;54.076;12.092;2023-02-04T10:26:38;25.00;56.20
46458;DHT22;32155;54.076;12.092;2023-02-04T10:29:07;25.10;54.50
46458;DHT22;32155;54.076;12.092;2023-02-04T10:31:49;25.40;53.90
46458;DHT22;32155;54.076;12.092;2023-02-04T10:34:31;25.10;51.90
46458;DHT22;32155;54.076;12.092;2023-02-04T10:37:11;24.80;53.20
46458;DHT22;32155;54.076;12.092;2023-02-04T10:39:45;25.10;53.30
46458;DHT22;32155;54.076;12.092;2023-02-04T10:42:25;24.50;53.20
46458;DHT22;32155;54.076;12.092;2023-02-04T10:44:52;26.10;52.00
46458;DHT22;32155;54.076;12.092;2023-02-04T10:47:23;26.40;51.70
46458;DHT22;32155;54.076;12.092;2023-02-04T10:49:58;26.90;51.30
46458;DHT22;32155;54.076;12.092;2023-02-04T10:52:38;26.50;50.30
46458;DHT22;32155;54.076;12.092;2023-02-04T10:55:07;25.50;49.80
46458;DHT22;32155;54.076;12.092;2023-02-04T10:57:40;24.60;51.50
46458;DHT22;32155;54.076;12.092;2023-02-04T11:00:15;25.80;51.00
46458;DHT22;32155;54.076;12.092;2023-02-04T11:03:27;26.90;49.30
46458;DHT22;32155;54.076;12.092;2023-02-04T11:06:04;27.50;49.00
46458;DHT22;32155;54.076;12.092;2023-02-04T11:08:42;28.40;47.00
46458;DHT22;32155;54.076;12.092;2023-02-04T11:11:31;28.70;46.10
46458;DHT22;32155;54.076;12.092;2023-02-04T11:14:04;28.20;44.90
46458;DHT22;32155;54.076;12.092;2023-02-04T11:16:50;27.30;46.40
46458;DHT22;32155;54.076;12.092;2023-02-04T11:19:48;28.20;46.60
46458;DHT22;32155;54.076;12.092;2023-02-04T11:22:45;28.40;44.80
46458;DHT22;32155;54.076;12.092;2023-02-04T11:39:39;26.70;46.20
46458;DHT22;32155;54.076;12.092;2023-02-04T11:42:37;26.60;46.50
46458;DHT22;32155;54.076;12.092;2023-02-04T11:45:19;27.10;46.80
46458;DHT22;32155;54.076;12.092;2023-02-04T11:51:13;26.80;45.00
46458;DHT22;32155;54.076;12.092;2023-02-04T11:54:02;27.60;45.10
46458;DHT22;32155;54.076;12.092;2023-02-04T11:56:29;27.10;45.10
46458;DHT22;32155;54.076;12.092;2023-02-04T11:58:56;26.80;44.90
46458;DHT22;32155;54.076;12.092;2023-02-04T12:01:32;27.00;44.90
46458;DHT22;32155;54.076;12.092;2023-02-04T12:04:20;26.60;44.70
46458;DHT22;32155;54.076;12.092;2023-02-04T12:07:04;26.50;44.50
46458;DHT22;32155;54.076;12.092;2023-02-04T12:09:30;26.20;45.20
46458;DHT22;32155;54.076;12.092;2023-02-04T12:12:02;26.30;45.10
46458;DHT22;32155;54.076;12.092;2023-02-04T12:14:38;27.00;44.90
46458;DHT22;32155;54.076;12.092;2023-02-04T12:17:19;27.40;43.10
46458;DHT22;32155;54.076;12.092;2023-02-04T12:19:52;28.40;43.60
46458;DHT22;32155;54.076;12.092;2023-02-04T12:22:18;29.20;42.50
46458;DHT22;32155;54.076;12.092;2023-02-04T12:27:47;28.70;42.20
46458;DHT22;32155;54.076;12.092;2023-02-04T12:30:16;27.90;42.90
46458;DHT22;32155;54.076;12.092;2023-02-04T12:32:43;27.90;43.90
46458;DHT22;32155;54.076;12.092;2023-02-04T12:37:55;28.60;42.20
46458;DHT22;32155;54.076;12.092;2023-02-04T12:40:41;27.90;42.20
46458;DHT22;32155;54.076;12.092;2023-02-04T12:43:18;27.30;44.40
46458;DHT22;32155;54.076;12.092;2023-02-04T12:45:50;28.30;43.30
46458;DHT22;32155;54.076;12.092;2023-02-04T12:48:22;27.30;42.10
46458;DHT22;32155;54.076;12.092;2023-02-04T12:50:52;27.50;43.20
46458;DHT22;32155;54.076;12.092;2023-02-04T12:53:24;26.10;43.20
46458;DHT22;32155;54.076;12.092;2023-02-04T12:55:55;25.70;44.40
46458;DHT22;32155;54.076;12.092;2023-02-04T12:58:30;25.60;44.40
46458;DHT22;32155;54.076;12.092;2023-02-04T13:01:21;25.90;43.40
46458;DHT22;32155;54.076;12.092;2023-02-04T13:03:59;24.30;44.20
46458;DHT22;32155;54.076;12.092;2023-02-04T13:06:40;25.30;45.10
46458;DHT22;32155;54.076;12.092;2023-02-04T13:09:08;25.80;43.90
46458;DHT22;32155;54.076;12.092;2023-02-04T13:11:40;26.10;44.00
46458;DHT22;32155;54.076;12.092;2023-02-04T13:14:06;26.40;42.70
46458;DHT22;32155;54.076;12.092;2023-02-04T13:16:35;25.70;41.90
46458;DHT22;32155;54.076;12.092;2023-02-04T13:19:25;24.80;44.00
46458;DHT22;32155;54.076;12.092;2023-02-04T13:21:50;24.50;44.60
46458;DHT22;32155;54.076;12.092;2023-02-04T13:24:19;23.40;45.50
46458;DHT22;32155;54.076;12.092;2023-02-04T13:26:50;23.60;45.00
46458;DHT22;32155;54.076;12.092;2023-02-04T13:29:19;22.70;45.80
46458;DHT22;32155;54.076;12.092;2023-02-04T13:31:46;21.80;47.00
46458;DHT22;32155;54.076;12.092;2023-02-04T13:34:15;22.10;47.20
46458;DHT22;32155;54.076;12.092;2023-02-04T13:36:53;23.70;45.20
46458;DHT22;32155;54.076;12.092;2023-02-04T13:39:28;23.90;44.80
46458;DHT22;32155;54.076;12.092;2023-02-04T13:42:00;23.80;44.10
46458;DHT22;32155;54.076;12.092;2023-02-04T13:44:32;22.80;44.90
46458;DHT22;32155;54.076;12.092;2023-02-04T13:47:18;22.80;45.60
46458;DHT22;32155;54.076;12.092;2023-02-04T13:49:50;22.60;45.30
46458;DHT22;32155;54.076;12.092;2023-02-04T13:52:18;22.10;45.80
46458;DHT22;32155;54.076;12.092;2023-02-04T13:54:48;21.50;47.40
46458;DHT22;32155;54.076;12.092;2023-02-04T13:57:42;20.70;48.30
46458;DHT22;32155;54.076;12.092;2023-02-04T14:00:17;20.40;49.20
46458;DHT22;32155;54.076;12.092;2023-02-04T14:02:57;20.30;49.40
46458;DHT22;32155;54.076;12.092;2023-02-04T14:05:31;19.60;50.60
46458;DHT22;32155;54.076;12.092;2023-02-04T14:07:57;19.30;50.80
46458;DHT22;32155;54.076;12.092;2023-02-04T14:10:23;19.20;50.80
46458;DHT22;32155;54.076;12.092;2023-02-04T14:12:51;19.80;50.60
46458;DHT22;32155;54.076;12.092;2023-02-04T14:15:17;20.20;50.50
46458;DHT22;32155;54.076;12.092;2023-02-04T14:17:42;20.90;48.80
46458;DHT22;32155;54.076;12.092;2023-02-04T14:20:09;21.10;48.90
46458;DHT22;32155;54.076;12.092;2023-02-04T14:22:40;20.80;48.70
46458;DHT22;32155;54.076;12.092;2023-02-04T14:25:17;20.00;49.40
46458;DHT22;32155;54.076;12.092;2023-02-04T14:27:48;19.40;50.80
46458;DHT22;32155;54.076;12.092;2023-02-04T14:30:23;19.70;51.00
46458;DHT22;32155;54.076;12.092;2023-02-04T14:32:56;19.90;50.10
46458;DHT22;32155;54.076;12.092;2023-02-04T14:35:33;19.10;51.10
46458;DHT22;32155;54.076;12.092;2023-02-04T14:37:59;17.30;52.60
46458;DHT22;32155;54.076;12.092;2023-02-04T14:40:25;15.40;56.50
46458;DHT22;32155;54.076;12.092;2023-02-04T14:42:57;16.10;56.30
46458;DHT22;32155;54.076;12.092;2023-02-04T14:45:45;16.80;54.70
46458;DHT22;32155;54.076;12.092;2023-02-04T14:48:10;17.20;54.30
46458;DHT22;32155;54.076;12.092;2023-02-04T14:50:36;17.30;53.60
46458;DHT22;32155;54.076;12.092;2023-02-04T14:53:02;17.30;52.90
46458;DHT22;32155;54.076;12.092;2023-02-04T14:55:31;17.10;51.90
46458;DHT22;32155;54.076;12.092;2023-02-04T14:58:00;16.50;53.90
46458;DHT22;32155;54.076;12.092;2023-02-04T15:00:26;15.10;55.60
46458;DHT22;32155;54.076;12.092;2023-02-04T15:02:57;13.10;57.80
46458;DHT22;32155;54.076;12.092;2023-02-04T15:05:26;11.30;62.50
46458;DHT22;32155;54.076;12.092;2023-02-04T15:07:54;9.80;66.80
46458;DHT22;32155;54.076;12.092;2023-02-04T15:10:26;8.50;70.80
46458;DHT22;32155;54.076;12.092;2023-02-04T15:12:52;7.70;73.70
46458;DHT22;32155;54.076;12.092;2023-02-04T15:15:19;6.90;76.60
46458;DHT22;32155;54.076;12.092;2023-02-04T15:17:45;6.60;78.50
46458;DHT22;32155;54.076;12.092;2023-02-04T15:20:17;6.20;80.30
46458;DHT22;32155;54.076;12.092;2023-02-04T15:22:42;5.80;82.30
46458;DHT22;32155;54.076;12.092;2023-02-04T15:25:14;5.20;85.10
46458;DHT22;32155;54.076;12.092;2023-02-04T15:28:11;5.00;87.40
46458;DHT22;32155;54.076;12.092;2023-02-04T15:30:54;4.80;90.00
46458;DHT22;32155;54.076;12.092;2023-02-04T15:33:22;4.70;90.80
46458;DHT22;32155;54.076;12.092;2023-02-04T15:35:58;4.50;92.20
46458;DHT22;32155;54.076;12.092;2023-02-04T15:38:24;4.20;93.50
46458;DHT22;32155;54.076;12.092;2023-02-04T15:40:50;4.00;95.30
46458;DHT22;32155;54.076;12.092;2023-02-04T15:43:18;3.80;97.90
46458;DHT22;32155;54.076;12.092;2023-02-04T15:45:47;3.70;99.90
46458;DHT22;32155;54.076;12.092;2023-02-04T15:48:13;3.50;99.90
46458;DHT22;32155;54.076;12.092;2023-02-04T15:50:39;3.50;99.90
46458;DHT22;32155;54.076;12.092;2023-02-04T15:53:11;3.30;99.90
46458;DHT22;32155;54.076;12.092;2023-02-04T15:55:43;3.20;99.90
46458;DHT22;32155;54.076;12.092;2023-02-04T16:01:01;2.90;99.90
46458;DHT22;32155;54.076;12.092;2023-02-04T16:06:30;2.70;99.90
46458;DHT22;32155;54.076;12.092;2023-02-04T16:09:02;2.50;99.90
46458;DHT22;32155;54.076;12.092;2023-02-04T20:05:34;-0.80;99.90
46458;DHT22;32155;54.076;12.092;2023-02-04T20:11:01;-1.00;99.90
46458;DHT22;32155;54.076;12.092;2023-02-04T20:13:36;-1.10;99.90
46458;DHT22;32155;54.076;12.092;2023-02-04T20:16:36;-1.20;99.90
46458;DHT22;32155;54.076;12.092;2023-02-04T20:24:55;-1.40;99.90
46458;DHT22;32155;54.076;12.092;2023-02-04T20:27:35;-1.50;99.90
46458;DHT22;32155;54.076;12.092;2023-02-04T20:32:55;-1.60;99.90
46458;DHT22;32155;54.076;12.092;2023-02-04T20:37:56;-1.80;99.90
46458;DHT22;32155;54.076;12.092;2023-02-04T20:40:44;-1.80;99.90
46458;DHT22;32155;54.076;12.092;2023-02-04T20:43:20;-1.80;99.90
46458;DHT22;32155;54.076;12.092;2023-02-04T20:45:51;-1.80;99.90
46458;DHT22;32155;54.076;12.092;2023-02-04T20:50:46;-1.90;99.90
46458;DHT22;32155;54.076;12.092;2023-02-04T20:58:49;-1.80;99.90
46458;DHT22;32155;54.076;12.092;2023-02-04T21:01:32;-2.00;99.90
46458;DHT22;32155;54.076;12.092;2023-02-04T21:06:44;-2.10;99.90
46458;DHT22;32155;54.076;12.092;2023-02-04T21:09:31;-2.10;99.90
46458;DHT22;32155;54.076;12.092;2023-02-04T21:11:58;-2.20;99.90
46458;DHT22;32155;54.076;12.092;2023-02-04T21:14:25;-2.10;99.90
46458;DHT22;32155;54.076;12.092;2023-02-04T21:16:55;-2.10;99.90
46458;DHT22;32155;54.076;12.092;2023-02-04T21:19:23;-2.20;99.90
46458;DHT22;32155;54.076;12.092;2023-02-04T21:21:49;-2.20;99.90
46458;DHT22;32155;54.076;12.092;2023-02-04T21:24:14;-2.10;99.90
46458;DHT22;32155;54.076;12.092;2023-02-04T21:26:40;-2.10;99.90
46458;DHT22;32155;54.076;12.092;2023-02-04T21:29:07;-2.10;99.90
46458;DHT22;32155;54.076;12.092;2023-02-04T21:31:33;-2.00;99.90
46458;DHT22;32155;54.076;12.092;2023-02-04T21:33:59;-2.00;99.90
46458;DHT22;32155;54.076;12.092;2023-02-04T21:36:24;-2.10;99.90
46458;DHT22;32155;54.076;12.092;2023-02-04T21:38:54;-2.30;99.90
46458;DHT22;32155;54.076;12.092;2023-02-04T21:41:22;-2.30;99.90
46458;DHT22;32155;54.076;12.092;2023-02-04T21:43:48;-2.30;99.90
46458;DHT22;32155;54.076;12.092;2023-02-04T21:46:15;-2.10;99.90
46458;DHT22;32155;54.076;12.092;2023-02-04T21:48:43;-2.10;99.90
46458;DHT22;32155;54.076;12.092;2023-02-04T21:51:10;-2.00;99.90
46458;DHT22;32155;54.076;12.092;2023-02-04T21:53:36;-2.10;99.90
46458;DHT22;32155;54.076;12.092;2023-02-04T21:56:04;-2.10;99.90
46458;DHT22;32155;54.076;12.092;2023-02-04T21:58:30;-2.20;99.90
46458;DHT22;32155;54.076;12.092;2023-02-04T22:00:58;-2.20;99.90
46458;DHT22;32155;54.076;12.092;2023-02-04T22:03:23;-2.00;99.90
46458;DHT22;32155;54.076;12.092;2023-02-04T22:05:49;-2.10;99.90
46458;DHT22;32155;54.076;12.092;2023-02-04T22:08:15;-2.20;99.90
46458;DHT22;32155;54.076;12.092;2023-02-04T22:10:43;-2.00;99.90
46458;DHT22;32155;54.076;12.092;2023-02-04T22:13:08;-2.20;99.90
46458;DHT22;32155;54.076;12.092;2023-02-04T22:15:34;-2.20;99.90
46458;DHT22;32155;54.076;12.092;2023-02-04T22:18:00;-2.10;99.90
46458;DHT22;32155;54.076;12.092;2023-02-04T22:20:26;-2.00;99.90
46458;DHT22;32155;54.076;12.092;2023-02-04T22:22:55;-1.90;99.90
46458;DHT22;32155;54.076;12.092;2023-02-04T22:25:21;-1.80;99.90
46458;DHT22;32155;54.076;12.092;2023-02-04T22:27:47;-1.80;99.90
46458;DHT22;32155;54.076;12.092;2023-02-04T22:30:14;-1.70;99.90
46458;DHT22;32155;54.076;12.092;2023-02-04T22:32:41;-1.60;99.90
46458;DHT22;32155;54.076;12.092;2023-02-04T22:35:08;-1.50;99.90
46458;DHT22;32155;54.076;12.092;2023-02-04T22:37:37;-1.30;99.90
46458;DHT22;32155;54.076;12.092;2023-02-04T22:40:07;-1.30;99.90
46458;DHT22;32155;54.076;12.092;2023-02-04T22:42:33;-1.40;99.90
46458;DHT22;32155;54.076;12.092;2023-02-04T22:45:00;-1.40;99.90
46458;DHT22;32155;54.076;12.092;2023-02-04T22:47:28;-1.40;99.90
46458;DHT22;32155;54.076;12.092;2023-02-04T22:49:56;-1.50;99.90
46458;DHT22;32155;54.076;12.092;2023-02-04T22:52:22;-1.50;99.90